Eben Junction, Michigan
Current Conditions -  °F | °C
As of 5:45 PM on Wednesday 17 Dec 2014 (Local Time) from KSAW Reporting Station
Overcast Overcast  
Wind Chill: 12°   Ceiling: 900
Heat Index: 25°   Visibility: 7mi
Dew Point: 23°   Wind: 16mph
Humidity: 93%   Direction: 350°N
Pressure: 30.11"   Gusts: 22mph
Location:  46.35°N, 86.97°W
Report Text: KSAW 172245Z 35014G19KT 7SM OVC009 M04/M05 A3011
Loading
Personal Weather Stations






























Interactive Weather Map New forecast layout! Learn more

10-Day Weather Forecast

Advertisements
Track Severe Weather on mobile